Time;durP1;ratioP1;P1;durP2;ratioP2;P2;SDS_P1;SDS_P2;PMS_P1;PMS_P2;Temp;Humidity;BMP_temperature;BMP_pressure;BME280_temperature;BME280_humidity;BME280_pressure;Samples;Min_cycle;Max_cycle;Signal;HPM_P1;HPM_P2
2022/02/09 00:09:16;;;;;;;6.53;3.10;;;0.10;99.90;;;;;;4993591;28;20488;-78
2022/02/09 00:12:07;;;;;;;13.60;3.13;;;0.10;99.90;;;;;;4993763;28;20033;-78
2022/02/09 00:59:58;;;;;;;5.23;2.90;;;-0.40;99.90;;;;;;5012048;28;20029;-77
2022/02/09 01:56:59;;;;;;;6.60;2.65;;;-0.50;99.90;;;;;;5011200;28;20514;-77
2022/02/09 01:59:25;;;;;;;8.27;2.80;;;-0.40;99.90;;;;;;5011092;28;20034;-77
2022/02/09 02:01:51;;;;;;;5.87;2.87;;;-0.30;99.90;;;;;;5005168;28;20048;-77
2022/02/09 02:04:18;;;;;;;5.13;2.93;;;-0.30;99.90;;;;;;5010118;28;20026;-76
2022/02/09 02:06:46;;;;;;;9.10;3.43;;;-0.20;99.90;;;;;;5011362;28;20462;-76
2022/02/09 02:09:13;;;;;;;5.47;3.13;;;-0.20;99.90;;;;;;5010851;28;20498;-76
2022/02/09 02:11:48;;;;;;;6.33;3.60;;;-0.10;99.90;;;;;;5011325;28;20076;-77
2022/02/09 02:16:47;;;;;;;6.83;2.90;;;-0.10;99.90;;;;;;5010823;28;20471;-77
2022/02/09 02:19:32;;;;;;;8.57;3.63;;;0.00;99.90;;;;;;5010844;28;20141;-77
2022/02/09 02:23:00;;;;;;;7.65;3.65;;;0.00;99.90;;;;;;5010856;28;20061;-77
2022/02/09 02:25:36;;;;;;;11.97;3.87;;;0.00;99.90;;;;;;5000046;28;20072;-76
2022/02/09 02:28:19;;;;;;;6.77;3.73;;;0.10;99.90;;;;;;4990897;28;20037;-77
2022/02/09 02:31:11;;;;;;;7.07;3.60;;;0.10;99.90;;;;;;4991078;28;20038;-77
2022/02/09 02:34:10;;;;;;;7.55;3.38;;;0.10;99.90;;;;;;4990627;28;20117;-77
2022/02/09 02:37:00;;;;;;;6.53;3.50;;;0.10;99.90;;;;;;4990930;28;20455;-77
2022/02/09 02:56:58;;;;;;;6.70;2.80;;;0.20;99.90;;;;;;4991011;28;20030;-76
2022/02/09 03:14:10;;;;;;;5.60;2.70;;;0.10;99.90;;;;;;5010544;28;20030;-77
2022/02/09 03:16:41;;;;;;;6.77;2.67;;;0.10;99.90;;;;;;5013201;28;20089;-77
2022/02/09 03:21:52;;;;;;;4.47;2.70;;;0.10;99.90;;;;;;5013888;28;20041;-78
2022/02/09 03:24:34;;;;;;;7.27;2.83;;;0.20;99.90;;;;;;4995923;28;20438;-77
2022/02/09 03:43:45;;;;;;;3.80;2.13;;;0.60;99.90;;;;;;4994011;28;20446;-77
2022/02/09 03:51:59;;;;;;;4.77;1.93;;;0.70;99.90;;;;;;5005315;28;20034;-77
2022/02/09 03:54:32;;;;;;;4.03;2.07;;;0.70;99.90;;;;;;5013323;28;20036;-77
2022/02/09 03:59:34;;;;;;;5.40;2.03;;;0.80;99.90;;;;;;5013563;28;20087;-77
2022/02/09 04:02:00;;;;;;;3.77;2.03;;;0.90;99.90;;;;;;5004473;28;20026;-77
2022/02/09 04:04:26;;;;;;;2.40;1.80;;;0.90;99.90;;;;;;5011686;28;20025;-76
2022/02/09 04:06:52;;;;;;;4.90;2.30;;;0.90;99.90;;;;;;5013343;28;20347;-77
2022/02/09 04:09:22;;;;;;;3.20;2.13;;;0.90;99.90;;;;;;5013221;28;20077;-77
2022/02/09 04:12:05;;;;;;;4.70;1.90;;;1.00;99.90;;;;;;5013473;28;20113;-77
2022/02/09 04:43:47;;;;;;;6.57;2.60;;;0.60;99.90;;;;;;5012818;28;20068;-77
2022/02/09 04:51:22;;;;;;;4.45;2.60;;;0.40;99.90;;;;;;5012917;28;20121;-77
2022/02/09 05:21:17;;;;;;;5.10;2.87;;;-0.10;99.90;;;;;;4998824;28;20089;-77
2022/02/09 05:26:07;;;;;;;3.83;2.43;;;-0.20;99.90;;;;;;5003995;28;20589;-77
2022/02/09 05:28:33;;;;;;;4.10;2.30;;;-0.20;99.90;;;;;;5000246;28;20029;-77
2022/02/09 05:30:59;;;;;;;5.40;2.30;;;-0.30;99.90;;;;;;5007233;28;20387;-77
2022/02/09 05:33:25;;;;;;;5.30;2.30;;;-0.30;99.90;;;;;;5009992;28;20072;-77
2022/02/09 05:35:51;;;;;;;9.33;3.27;;;-0.40;99.90;;;;;;5010309;28;20040;-77
2022/02/09 05:38:18;;;;;;;10.33;2.60;;;-0.40;99.90;;;;;;5006985;28;20509;-77
2022/02/09 05:40:44;;;;;;;3.97;2.63;;;-0.50;99.90;;;;;;5009898;28;20037;-77
2022/02/09 05:43:11;;;;;;;3.77;2.30;;;-0.50;99.90;;;;;;5010280;28;20097;-78
2022/02/09 05:50:58;;;;;;;4.73;2.17;;;-0.50;99.90;;;;;;5008897;28;20072;-77
2022/02/09 05:53:35;;;;;;;5.73;2.80;;;-0.60;99.90;;;;;;4990553;28;20475;-77
2022/02/09 05:56:46;;;;;;;7.30;2.70;;;-0.60;99.90;;;;;;5008863;28;20030;-77
2022/02/09 05:59:02;;;;;;;7.40;2.90;;;-0.70;99.90;;;;;;5004640;28;20045;-77
2022/02/09 06:01:28;;;;;;;6.70;2.77;;;-0.70;99.90;;;;;;5004248;28;20038;-77
2022/02/09 06:03:53;;;;;;;5.47;2.53;;;-0.70;99.90;;;;;;5010013;28;20471;-78
2022/02/09 06:06:19;;;;;;;7.53;3.03;;;-0.70;99.90;;;;;;5010497;28;20022;-77
2022/02/09 06:08:47;;;;;;;13.27;4.20;;;-0.80;99.90;;;;;;4990483;28;20033;-77
2022/02/09 06:11:33;;;;;;;9.27;3.33;;;-0.80;99.90;;;;;;4992224;28;20462;-76
2022/02/09 06:21:58;;;;;;;7.20;3.37;;;-0.80;99.90;;;;;;4995158;28;20112;-76
2022/02/09 06:24:24;;;;;;;5.07;3.00;;;-0.80;99.90;;;;;;4999315;28;20417;-78
2022/02/09 06:26:49;;;;;;;5.00;2.97;;;-0.90;99.90;;;;;;5010830;28;20021;-78
2022/02/09 06:29:15;;;;;;;5.00;3.07;;;-0.80;99.90;;;;;;5009898;28;20014;-78
2022/02/09 06:31:43;;;;;;;7.03;3.40;;;-0.80;99.90;;;;;;5010572;28;20041;-78
2022/02/09 06:34:12;;;;;;;5.70;2.90;;;-0.80;99.90;;;;;;4992198;28;20498;-79
2022/02/09 06:36:42;;;;;;;4.40;2.70;;;-0.80;99.90;;;;;;5010016;28;20030;-79
2022/02/09 06:39:09;;;;;;;6.13;2.90;;;-0.90;99.90;;;;;;5009650;28;20384;-79
2022/02/09 06:41:35;;;;;;;4.57;2.73;;;-0.90;99.90;;;;;;5007655;28;20022;-79
2022/02/09 06:44:02;;;;;;;6.03;2.83;;;-0.90;99.90;;;;;;5009580;28;20014;-79
2022/02/09 06:46:32;;;;;;;8.30;3.10;;;-0.90;99.90;;;;;;5007443;28;20101;-79
2022/02/09 06:49:04;;;;;;;9.53;2.83;;;-0.80;99.90;;;;;;5006859;28;20076;-78
2022/02/09 06:51:32;;;;;;;5.13;2.77;;;-0.90;99.90;;;;;;5008290;28;20550;-77
2022/02/09 06:54:11;;;;;;;5.13;3.27;;;-0.80;99.90;;;;;;5009365;28;20367;-76
2022/02/09 06:56:57;;;;;;;7.80;2.83;;;-0.80;99.90;;;;;;5009034;28;20029;-76
2022/02/09 06:59:29;;;;;;;6.75;2.88;;;-0.80;99.90;;;;;;5009237;28;20021;-76
2022/02/09 07:02:02;;;;;;;8.80;2.63;;;-0.80;99.90;;;;;;5001561;28;20037;-77
2022/02/09 07:04:27;;;;;;;5.10;2.47;;;-0.80;99.90;;;;;;5006995;28;20101;-76
2022/02/09 07:06:53;;;;;;;7.30;2.77;;;-0.80;99.90;;;;;;5008010;28;20600;-77
2022/02/09 07:09:19;;;;;;;5.53;2.43;;;-0.70;99.90;;;;;;4988811;28;20592;-77
2022/02/09 07:11:45;;;;;;;6.10;2.87;;;-0.70;99.90;;;;;;5007805;28;20030;-77
2022/02/09 07:14:10;;;;;;;6.73;2.87;;;-0.70;99.90;;;;;;5002182;28;20090;-77
2022/02/09 07:16:37;;;;;;;4.83;3.03;;;-0.60;99.90;;;;;;5004680;28;20018;-78
2022/02/09 07:19:07;;;;;;;9.07;4.00;;;-0.50;99.90;;;;;;5006849;28;20022;-78
2022/02/09 07:21:34;;;;;;;6.93;4.37;;;-0.50;99.90;;;;;;5006232;28;20058;-78
2022/02/09 07:24:01;;;;;;;8.27;4.37;;;-0.40;99.90;;;;;;4988531;28;20084;-77
2022/02/09 07:26:30;;;;;;;9.43;3.40;;;-0.30;99.90;;;;;;5006390;28;20018;-77
2022/02/09 07:28:56;;;;;;;8.43;2.80;;;-0.30;99.90;;;;;;5005574;28;20026;-77
2022/02/09 07:31:22;;;;;;;8.33;2.97;;;-0.20;99.90;;;;;;4989475;28;20053;-77
2022/02/09 07:33:48;;;;;;;8.27;3.43;;;-0.10;99.90;;;;;;4988710;28;20086;-77
2022/02/09 07:36:16;;;;;;;5.60;3.00;;;-0.10;99.90;;;;;;4980755;28;20119;-77
2022/02/09 07:38:43;;;;;;;5.27;2.97;;;0.00;99.90;;;;;;5007193;28;20407;-77
2022/02/09 07:41:09;;;;;;;4.80;2.90;;;0.00;99.90;;;;;;5007526;28;20022;-77
2022/02/09 07:49:00;;;;;;;5.07;2.80;;;0.30;99.90;;;;;;5006125;28;20028;-77
2022/02/09 07:54:01;;;;;;;5.20;2.40;;;0.50;99.90;;;;;;5004437;28;20030;-77
2022/02/09 07:56:41;;;;;;;4.23;2.60;;;0.70;99.90;;;;;;5004096;28;20378;-77
2022/02/09 07:59:09;;;;;;;4.03;2.20;;;0.80;99.90;;;;;;4980929;28;20101;-76
2022/02/09 08:01:35;;;;;;;4.83;2.80;;;0.90;99.90;;;;;;5001023;28;20574;-78
2022/02/09 08:04:01;;;;;;;5.30;2.83;;;1.10;99.90;;;;;;5008873;28;20022;-78
2022/02/09 08:06:27;;;;;;;4.23;2.63;;;1.20;99.90;;;;;;5010353;28;20034;-78
2022/02/09 08:08:56;;;;;;;5.57;2.10;;;1.30;99.90;;;;;;5007568;28;20018;-78
2022/02/09 08:11:31;;;;;;;6.27;2.40;;;1.50;99.90;;;;;;5008397;28;20552;-77
2022/02/09 08:26:09;;;;;;;10.17;3.13;;;2.40;99.90;;;;;;5007849;28;20045;-78
2022/02/09 08:33:07;;;;;;;6.00;3.40;;;2.80;99.90;;;;;;5010364;28;20033;-78
2022/02/09 08:35:34;;;;;;;6.63;2.60;;;3.00;99.90;;;;;;5009346;28;20112;-78
2022/02/09 08:38:00;;;;;;;5.70;2.70;;;3.20;99.90;;;;;;5007491;28;20765;-77
2022/02/09 08:40:27;;;;;;;6.23;2.60;;;3.40;99.90;;;;;;4992663;28;20026;-76
2022/02/09 08:42:54;;;;;;;6.97;2.90;;;3.70;99.90;;;;;;4993225;28;20033;-77
2022/02/09 08:45:20;;;;;;;5.93;2.80;;;3.80;99.90;;;;;;5009886;28;20061;-77
2022/02/09 08:47:47;;;;;;;5.40;3.13;;;3.80;99.90;;;;;;5010135;28;20294;-77
2022/02/09 08:50:15;;;;;;;7.27;3.20;;;3.90;99.90;;;;;;5009282;28;20026;-77
2022/02/09 08:52:41;;;;;;;5.40;3.07;;;3.90;99.90;;;;;;5008969;28;20113;-77
2022/02/09 08:55:08;;;;;;;8.23;3.07;;;3.90;99.90;;;;;;5008358;28;20022;-77
2022/02/09 08:57:35;;;;;;;7.03;3.43;;;3.80;99.90;;;;;;5009900;28;20029;-77
2022/02/09 09:00:08;;;;;;;9.23;3.00;;;3.80;99.90;;;;;;5009361;28;20046;-77
2022/02/09 09:02:35;;;;;;;8.47;3.00;;;3.80;99.90;;;;;;5006018;28;20121;-79
2022/02/09 09:05:13;;;;;;;8.30;3.37;;;3.70;99.90;;;;;;5008038;28;20813;-79
2022/02/09 09:07:39;;;;;;;4.93;3.10;;;3.70;99.90;;;;;;5009845;28;20080;-78
2022/02/09 09:10:22;;;;;;;7.60;2.90;;;3.70;99.90;;;;;;4991941;28;20053;-77
2022/02/09 09:41:26;;;;;;;8.60;3.30;;;4.80;99.90;;;;;;5004056;28;20612;-76
2022/02/09 10:02:49;;;;;;;5.87;2.13;;;6.10;99.90;;;;;;5002384;28;20508;-76
2022/02/09 10:05:38;;;;;;;6.80;2.50;;;6.20;99.90;;;;;;5007641;28;20695;-77
2022/02/09 10:33:15;;;;;;;6.63;1.42;;;7.30;99.90;;;;;;5006615;28;20091;-83
2022/02/09 10:36:01;;;;;;;6.83;1.57;;;7.40;99.90;;;;;;5005801;28;20033;-83
2022/02/09 10:38:33;;;;;;;6.27;1.70;;;7.40;99.90;;;;;;5006973;28;20050;-83
2022/02/09 10:41:16;;;;;;;4.30;1.60;;;7.60;99.90;;;;;;5007092;28;20088;-83
2022/02/09 10:43:44;;;;;;;5.30;1.77;;;7.60;99.90;;;;;;5006493;28;20054;-83
2022/02/09 10:46:20;;;;;;;3.70;1.50;;;7.70;99.90;;;;;;4989536;28;20033;-83
2022/02/09 10:48:56;;;;;;;4.20;1.67;;;7.70;99.90;;;;;;5006697;28;20045;-82
2022/02/09 10:54:17;;;;;;;2.60;1.60;;;7.90;99.90;;;;;;5006305;28;20041;-83
2022/02/09 10:56:52;;;;;;;2.63;1.50;;;8.00;99.90;;;;;;5006993;28;20061;-83
2022/02/09 10:59:21;;;;;;;6.80;1.52;;;8.10;99.90;;;;;;5007118;28;20100;-83
2022/02/09 11:01:47;;;;;;;2.50;1.37;;;8.10;99.90;;;;;;4991181;28;20068;-79
2022/02/09 11:04:13;;;;;;;2.77;1.60;;;8.30;99.90;;;;;;5010675;28;20049;-80
2022/02/09 11:06:41;;;;;;;2.97;1.50;;;8.40;99.90;;;;;;5011363;28;20025;-78
2022/02/09 11:09:10;;;;;;;7.00;2.03;;;8.50;99.90;;;;;;5010274;28;20018;-78
2022/02/09 11:11:39;;;;;;;2.70;1.50;;;8.60;99.90;;;;;;5010642;28;20026;-78
2022/02/09 11:14:11;;;;;;;2.90;1.90;;;8.90;99.90;;;;;;5010508;28;20392;-78
2022/02/09 11:16:37;;;;;;;5.13;1.67;;;8.90;99.90;;;;;;4993321;28;20041;-79
2022/02/09 11:19:03;;;;;;;3.40;1.50;;;9.00;99.90;;;;;;5010824;28;20022;-79
2022/02/09 11:21:36;;;;;;;3.53;1.30;;;9.10;99.90;;;;;;5010547;28;20793;-79
2022/02/09 11:24:19;;;;;;;6.53;1.60;;;9.20;99.90;;;;;;5010411;28;20404;-79
2022/02/09 11:27:01;;;;;;;2.10;1.63;;;9.40;99.90;;;;;;5011107;28;20109;-84
2022/02/09 11:30:24;;;;;;;3.57;1.60;;;9.40;99.90;;;;;;5010035;28;20025;-80
2022/02/09 11:32:36;;;;;;;3.30;1.60;;;9.50;99.90;;;;;;5002401;28;20085;-79
2022/02/09 11:35:10;;;;;;;3.57;1.60;;;9.50;99.90;;;;;;5010954;28;20077;-82
2022/02/09 11:37:42;;;;;;;5.47;1.83;;;9.50;99.90;;;;;;5014176;28;20018;-67
2022/02/09 11:40:37;;;;;;;3.97;1.63;;;9.60;99.90;;;;;;5013505;28;20470;-65
2022/02/09 11:59:08;;;;;;;3.50;1.40;;;10.50;99.90;;;;;;5010678;28;20041;-84
2022/02/09 12:10:25;;;;;;;4.65;1.40;;;10.90;99.90;;;;;;4916403;29;20076;-78
2022/02/09 12:12:59;;;;;;;4.93;1.40;;;10.90;99.90;;;;;;4972797;28;20749;-81
2022/02/09 12:18:30;;;;;;;4.18;1.30;;;11.00;99.90;;;;;;4996614;28;20308;-78
2022/02/09 12:21:14;;;;;;;4.05;1.58;;;11.40;99.90;;;;;;4997309;28;20026;-88
2022/02/09 12:23:41;;;;;;;4.82;2.13;;;11.40;99.90;;;;;;4997045;28;20022;-88
2022/02/09 12:26:10;;;;;;;7.65;1.88;;;11.40;99.90;;;;;;5014400;28;20026;-89
2022/02/09 12:28:39;;;;;;;6.47;1.42;;;11.40;99.90;;;;;;5010159;28;20022;-67
2022/02/09 12:31:14;;;;;;;2.67;1.30;;;11.50;99.90;;;;;;5004040;28;20549;-66
2022/02/09 12:33:43;;;;;;;4.30;1.30;;;11.70;99.90;;;;;;5000001;28;20032;-65
2022/02/09 12:36:17;;;;;;;3.17;1.20;;;11.80;99.90;;;;;;5008567;28;20087;-65
2022/02/09 12:38:44;;;;;;;2.03;1.20;;;11.90;99.90;;;;;;4990123;28;20510;-65
2022/02/09 12:41:19;;;;;;;3.00;1.10;;;11.90;99.90;;;;;;5007603;28;20037;-64
2022/02/09 12:43:52;;;;;;;4.88;1.20;;;12.00;99.90;;;;;;4989130;28;20034;-72
2022/02/09 12:46:20;;;;;;;8.27;1.73;;;12.10;99.90;;;;;;4989196;28;20057;-65
2022/02/09 12:48:47;;;;;;;18.92;1.90;;;12.10;99.90;;;;;;4988477;28;20033;-66
2022/02/09 12:51:24;;;;;;;2.85;1.20;;;12.20;99.90;;;;;;4992644;28;20033;-65
2022/02/09 12:53:50;;;;;;;2.03;1.20;;;12.00;99.90;;;;;;5007078;28;20729;-65
2022/02/09 12:56:28;;;;;;;1.60;1.08;;;12.00;99.90;;;;;;5007725;28;20026;-65
2022/02/09 12:59:05;;;;;;;2.65;1.27;;;11.90;99.90;;;;;;5008070;28;20447;-65
2022/02/09 13:01:49;;;;;;;1.23;0.95;;;11.90;99.90;;;;;;5002640;28;20026;-65
2022/02/09 13:04:33;;;;;;;3.63;1.20;;;12.10;99.90;;;;;;5007449;28;20030;-65
2022/02/09 13:07:01;;;;;;;3.97;1.15;;;12.20;99.90;;;;;;5008919;28;20014;-65
2022/02/09 13:09:28;;;;;;;3.47;1.13;;;12.20;99.90;;;;;;5007805;28;20040;-65
2022/02/09 13:11:54;;;;;;;4.32;1.23;;;12.10;99.90;;;;;;5008237;28;20030;-65
2022/02/09 13:14:31;;;;;;;1.42;1.00;;;12.20;99.90;;;;;;5007481;28;20117;-65
2022/02/09 13:20:08;;;;;;;5.18;1.42;;;12.40;99.90;;;;;;5014842;28;20026;-65
2022/02/09 13:22:42;;;;;;;4.82;1.10;;;12.30;99.90;;;;;;5008223;28;20045;-65
2022/02/09 14:06:05;;;;;;;3.30;1.35;;;12.10;99.90;;;;;;5007016;28;20040;-65
2022/02/09 14:13:27;;;;;;;2.38;1.20;;;12.20;99.90;;;;;;5000483;28;20038;-66
2022/02/09 14:32:59;;;;;;;2.10;0.90;;;11.90;99.90;;;;;;5007667;28;20033;-65
2022/02/09 14:35:18;;;;;;;3.05;0.90;;;11.90;99.90;;;;;;5006646;28;20034;-66
2022/02/09 14:49:39;;;;;;;1.35;0.90;;;11.80;99.90;;;;;;4992746;28;20060;-66
2022/02/09 14:59:04;;;;;;;2.47;1.10;;;11.60;99.90;;;;;;5003539;28;20042;-66
2022/02/09 15:01:40;;;;;;;3.15;1.38;;;11.50;99.90;;;;;;5006023;28;20041;-65
2022/02/09 15:04:25;;;;;;;2.53;1.20;;;11.50;99.90;;;;;;5009171;28;20025;-65
2022/02/09 15:09:46;;;;;;;4.22;1.00;;;11.50;99.90;;;;;;5010619;28;20045;-64
2022/02/09 15:22:38;;;;;;;4.15;1.25;;;11.20;99.90;;;;;;5005927;28;20515;-64
2022/02/09 15:25:13;;;;;;;3.45;1.10;;;11.20;99.90;;;;;;5014336;28;20132;-65
2022/02/09 15:27:38;;;;;;;5.28;1.60;;;11.10;99.90;;;;;;5013836;28;20026;-64
2022/02/09 15:30:06;;;;;;;1.45;1.00;;;11.10;99.90;;;;;;5013348;28;20030;-64
2022/02/09 15:32:36;;;;;;;7.05;1.17;;;11.00;99.90;;;;;;5014183;28;20030;-64
2022/02/09 15:35:31;;;;;;;5.13;1.30;;;10.90;99.90;;;;;;5011644;28;20109;-65
2022/02/09 15:38:27;;;;;;;6.00;1.30;;;10.90;99.90;;;;;;5012493;28;20042;-65
2022/02/09 15:40:54;;;;;;;5.45;1.15;;;10.80;99.90;;;;;;4994375;28;20046;-64
2022/02/09 15:57:58;;;;;;;3.13;1.40;;;10.30;99.90;;;;;;5007981;28;20184;-79
2022/02/09 16:05:51;;;;;;;8.07;2.80;;;9.80;99.90;;;;;;5012289;28;20048;-78
2022/02/09 16:16:36;;;;;;;9.10;2.67;;;9.30;99.90;;;;;;4950286;28;20050;-83
2022/02/09 16:22:09;;;;;;;14.17;2.80;;;8.50;99.90;;;;;;5013008;28;20433;-83
2022/02/09 16:46:26;;;;;;;13.67;4.37;;;7.00;99.90;;;;;;4997996;28;20033;-84
2022/02/09 16:51:22;;;;;;;22.90;4.93;;;6.70;99.90;;;;;;5012434;28;20042;-82
2022/02/09 16:56:27;;;;;;;19.40;4.73;;;6.50;99.90;;;;;;5012008;28;20033;-82
2022/02/09 17:15:35;;;;;;;16.37;3.70;;;5.70;99.90;;;;;;5011285;28;20116;-83
2022/02/09 17:20:46;;;;;;;9.23;4.27;;;5.50;99.90;;;;;;5012558;28;20033;-84
2022/02/09 17:23:12;;;;;;;13.20;4.57;;;5.40;99.90;;;;;;5011652;28;20084;-85
2022/02/09 17:25:37;;;;;;;16.60;4.37;;;5.40;99.90;;;;;;5011256;28;20268;-86
2022/02/09 17:28:03;;;;;;;21.17;4.50;;;5.30;99.90;;;;;;5009583;28;20025;-82
2022/02/09 17:33:45;;;;;;;14.67;3.83;;;5.20;99.90;;;;;;5011872;28;20032;-84
2022/02/09 17:36:46;;;;;;;18.93;5.50;;;5.10;99.90;;;;;;4994319;28;20065;-77
2022/02/09 17:57:51;;;;;;;18.90;5.57;;;4.50;99.90;;;;;;5011612;28;20096;-78
2022/02/09 18:00:17;;;;;;;13.00;5.68;;;4.40;99.90;;;;;;5014281;28;20032;-78
2022/02/09 18:02:51;;;;;;;13.80;4.97;;;4.40;99.90;;;;;;5014425;28;20030;-77
2022/02/09 18:07:52;;;;;;;16.70;6.50;;;4.20;99.90;;;;;;5013709;28;20121;-77
2022/02/09 18:10:28;;;;;;;17.33;6.73;;;4.20;99.90;;;;;;5014008;28;20030;-77
2022/02/09 18:15:54;;;;;;;33.90;11.77;;;4.00;99.90;;;;;;5014019;28;20037;-77
2022/02/09 18:46:17;;;;;;;14.03;7.73;;;3.10;99.90;;;;;;5011684;28;20371;-79
2022/02/09 18:48:15;;;;;;;13.97;7.33;;;3.00;99.90;;;;;;4982401;28;20052;-80
2022/02/09 19:04:23;;;;;;;10.63;3.37;;;2.60;99.90;;;;;;5013698;28;20419;-78
2022/02/09 19:19:59;;;;;;;13.00;5.30;;;2.20;99.90;;;;;;5012752;28;20037;-77
2022/02/09 19:44:50;;;;;;;16.10;5.83;;;1.80;99.90;;;;;;5012842;28;20346;-78
2022/02/09 19:46:56;;;;;;;14.13;6.30;;;1.80;99.90;;;;;;5010657;28;20144;-83
2022/02/09 19:52:12;;;;;;;13.70;5.93;;;1.80;99.90;;;;;;5012746;28;20029;-79
2022/02/09 19:57:23;;;;;;;10.80;5.03;;;1.80;99.90;;;;;;5012468;28;20544;-80
2022/02/09 19:59:50;;;;;;;13.83;4.90;;;1.80;99.90;;;;;;5015294;28;20109;-81
2022/02/09 20:02:16;;;;;;;11.60;5.43;;;1.90;99.90;;;;;;5015587;28;20025;-80
2022/02/09 20:04:42;;;;;;;11.47;4.60;;;1.90;99.90;;;;;;5014652;28;20487;-80
2022/02/09 20:07:08;;;;;;;8.63;5.13;;;1.90;99.90;;;;;;5015774;28;20061;-80
2022/02/09 20:09:34;;;;;;;7.73;4.47;;;1.90;99.90;;;;;;5015913;28;20026;-81
2022/02/09 20:12:00;;;;;;;10.30;5.37;;;1.80;99.90;;;;;;5015711;28;20040;-81
2022/02/09 20:14:27;;;;;;;9.90;4.90;;;1.80;99.90;;;;;;5016183;28;20064;-81
2022/02/09 20:16:53;;;;;;;13.07;4.73;;;1.80;99.90;;;;;;5015656;28;20030;-81
2022/02/09 20:19:18;;;;;;;10.13;5.10;;;1.80;99.90;;;;;;5016095;28;20084;-81
2022/02/09 20:21:44;;;;;;;9.13;5.57;;;1.80;99.90;;;;;;5015822;28;20158;-81
2022/02/09 20:24:14;;;;;;;9.47;5.77;;;1.80;99.90;;;;;;5015611;28;20037;-81
2022/02/09 20:26:40;;;;;;;14.90;7.00;;;1.80;99.90;;;;;;5015564;28;20032;-81
2022/02/09 20:29:11;;;;;;;15.50;7.87;;;1.80;99.90;;;;;;4998019;28;20030;-82
2022/02/09 20:32:17;;;;;;;17.53;8.50;;;1.70;99.90;;;;;;5015920;28;20029;-82
2022/02/09 20:34:34;;;;;;;17.47;8.03;;;1.70;99.90;;;;;;5013611;28;20108;-80
2022/02/09 20:37:01;;;;;;;18.60;9.00;;;1.60;99.90;;;;;;5015553;28;20033;-80
2022/02/09 20:39:31;;;;;;;12.60;6.20;;;1.50;99.90;;;;;;5015504;28;20104;-80
2022/02/09 20:41:58;;;;;;;11.40;6.27;;;1.50;99.90;;;;;;5015297;28;20499;-80
2022/02/09 20:44:32;;;;;;;13.07;6.67;;;1.40;99.90;;;;;;5014969;28;20083;-81
2022/02/09 20:46:59;;;;;;;15.30;7.60;;;1.40;99.90;;;;;;5015270;28;20486;-81
2022/02/09 20:49:25;;;;;;;13.37;7.67;;;1.30;99.90;;;;;;5015223;28;20026;-82
2022/02/09 20:51:51;;;;;;;15.77;7.37;;;1.30;99.90;;;;;;5015243;28;20104;-81
2022/02/09 20:54:17;;;;;;;13.43;6.87;;;1.20;99.90;;;;;;5015077;28;20049;-81
2022/02/09 20:56:42;;;;;;;12.90;6.93;;;1.20;99.90;;;;;;5015012;28;20042;-81
2022/02/09 20:59:11;;;;;;;16.43;6.63;;;1.10;99.90;;;;;;4997669;28;20044;-81
2022/02/09 21:01:45;;;;;;;13.83;5.77;;;1.00;99.90;;;;;;5014886;28;20037;-81
2022/02/09 21:04:14;;;;;;;15.10;5.80;;;1.00;99.90;;;;;;5014857;28;20022;-81
2022/02/09 21:12:20;;;;;;;14.13;5.00;;;0.90;99.90;;;;;;5014763;28;20045;-81
2022/02/09 21:17:58;;;;;;;8.27;4.80;;;0.90;99.90;;;;;;5014825;28;20160;-81
2022/02/09 21:23:37;;;;;;;12.60;4.87;;;0.80;99.90;;;;;;4992129;28;20121;-81
2022/02/09 21:57:22;;;;;;;9.33;5.00;;;0.30;99.90;;;;;;5013994;28;20014;-81
2022/02/09 22:26:07;;;;;;;11.23;5.20;;;-0.10;99.90;;;;;;5010653;28;20078;-80
2022/02/09 22:30:09;;;;;;;9.87;5.20;;;-0.10;99.90;;;;;;5010498;28;20157;-80
2022/02/09 22:45:41;;;;;;;7.00;3.90;;;-0.30;99.90;;;;;;5010280;28;20060;-79
2022/02/09 22:48:24;;;;;;;8.00;4.33;;;-0.30;99.90;;;;;;4990660;28;20058;-79
2022/02/09 22:54:23;;;;;;;7.30;3.93;;;-0.40;99.90;;;;;;4990801;28;20076;-79
2022/02/09 22:56:27;;;;;;;6.67;3.43;;;-0.40;99.90;;;;;;5009596;28;20048;-79
2022/02/09 22:58:53;;;;;;;10.00;4.33;;;-0.40;99.90;;;;;;5010035;28;20022;-80
2022/02/09 23:01:31;;;;;;;6.77;3.40;;;-0.40;99.90;;;;;;5006274;28;20100;-79
2022/02/09 23:06:41;;;;;;;8.93;3.03;;;-0.40;99.90;;;;;;5010814;28;20116;-79
2022/02/09 23:09:34;;;;;;;6.07;3.73;;;-0.40;99.90;;;;;;5009844;28;20062;-80
2022/02/09 23:14:41;;;;;;;7.47;3.57;;;-0.40;99.90;;;;;;5010149;28;20115;-80
